sensor_id;sensor_type;location;lat;lon;timestamp;P1;durP1;ratioP1;P2;durP2;ratioP2
40048;SDS011;54524;55.740;37.544;2023-02-15T00:01:05;2.3;;;0.7;;
40048;SDS011;54524;55.740;37.544;2023-02-15T00:02:05;2.2;;;0.6;;
40048;SDS011;54524;55.740;37.544;2023-02-15T00:03:06;2.2;;;0.6;;
40048;SDS011;54524;55.740;37.544;2023-02-15T00:04:07;2.8;;;0.7;;
40048;SDS011;54524;55.740;37.544;2023-02-15T00:05:09;2.7;;;0.7;;
40048;SDS011;54524;55.740;37.544;2023-02-15T00:06:10;2.7;;;0.7;;
40048;SDS011;54524;55.740;37.544;2023-02-15T00:07:12;2.3;;;0.6;;
40048;SDS011;54524;55.740;37.544;2023-02-15T00:08:13;2.3;;;0.5;;
40048;SDS011;54524;55.740;37.544;2023-02-15T00:09:13;2.3;;;0.5;;
40048;SDS011;54524;55.740;37.544;2023-02-15T00:11:04;1.7;;;0.6;;
40048;SDS011;54524;55.740;37.544;2023-02-15T00:12:05;1.5;;;0.6;;
40048;SDS011;54524;55.740;37.544;2023-02-15T00:13:06;1.9;;;0.6;;
40048;SDS011;54524;55.740;37.544;2023-02-15T00:14:06;1.9;;;0.6;;
40048;SDS011;54524;55.740;37.544;2023-02-15T00:15:07;1.9;;;0.6;;
40048;SDS011;54524;55.740;37.544;2023-02-15T00:16:10;3.4;;;0.9;;
40048;SDS011;54524;55.740;37.544;2023-02-15T00:17:11;3.2;;;0.9;;
40048;SDS011;54524;55.740;37.544;2023-02-15T00:18:12;3.3;;;0.9;;
40048;SDS011;54524;55.740;37.544;2023-02-15T00:19:13;3.5;;;0.8;;
40048;SDS011;54524;55.740;37.544;2023-02-15T00:21:03;3.6;;;0.9;;
40048;SDS011;54524;55.740;37.544;2023-02-15T00:22:04;3.1;;;0.7;;
40048;SDS011;54524;55.740;37.544;2023-02-15T00:23:04;3.1;;;0.7;;
40048;SDS011;54524;55.740;37.544;2023-02-15T00:24:06;3.1;;;0.7;;
40048;SDS011;54524;55.740;37.544;2023-02-15T00:25:07;2.6;;;0.6;;
40048;SDS011;54524;55.740;37.544;2023-02-15T00:26:09;2.6;;;0.6;;
40048;SDS011;54524;55.740;37.544;2023-02-15T00:27:10;3;;;0.6;;
40048;SDS011;54524;55.740;37.544;2023-02-15T00:28:10;2.8;;;0.7;;
40048;SDS011;54524;55.740;37.544;2023-02-15T00:29:11;2.8;;;0.7;;
40048;SDS011;54524;55.740;37.544;2023-02-15T00:31:04;3;;;0.7;;
40048;SDS011;54524;55.740;37.544;2023-02-15T00:32:05;1.3;;;0.5;;
40048;SDS011;54524;55.740;37.544;2023-02-15T00:33:06;1.2;;;0.5;;
40048;SDS011;54524;55.740;37.544;2023-02-15T00:34:07;1.2;;;0.5;;
40048;SDS011;54524;55.740;37.544;2023-02-15T00:35:10;2.5;;;0.7;;
40048;SDS011;54524;55.740;37.544;2023-02-15T00:36:11;2.4;;;0.7;;
40048;SDS011;54524;55.740;37.544;2023-02-15T00:37:12;2.3;;;0.7;;
40048;SDS011;54524;55.740;37.544;2023-02-15T00:38:12;2.8;;;0.7;;
40048;SDS011;54524;55.740;37.544;2023-02-15T00:39:13;2.7;;;0.7;;
40048;SDS011;54524;55.740;37.544;2023-02-15T00:41:03;2;;;0.7;;
40048;SDS011;54524;55.740;37.544;2023-02-15T00:42:04;2.1;;;0.7;;
40048;SDS011;54524;55.740;37.544;2023-02-15T00:43:04;2.3;;;0.7;;
40048;SDS011;54524;55.740;37.544;2023-02-15T00:44:05;3.3;;;0.8;;
40048;SDS011;54524;55.740;37.544;2023-02-15T00:45:06;3.3;;;0.7;;
40048;SDS011;54524;55.740;37.544;2023-02-15T00:46:12;3.1;;;0.7;;
40048;SDS011;54524;55.740;37.544;2023-02-15T00:47:13;3.2;;;0.6;;
40048;SDS011;54524;55.740;37.544;2023-02-15T00:48:14;3.2;;;0.6;;
40048;SDS011;54524;55.740;37.544;2023-02-15T00:49:15;3.2;;;0.6;;
40048;SDS011;54524;55.740;37.544;2023-02-15T00:51:03;2.6;;;0.8;;
40048;SDS011;54524;55.740;37.544;2023-02-15T00:52:03;2.7;;;0.8;;
40048;SDS011;54524;55.740;37.544;2023-02-15T00:53:04;2.2;;;0.8;;
40048;SDS011;54524;55.740;37.544;2023-02-15T00:54:04;2.2;;;0.8;;
40048;SDS011;54524;55.740;37.544;2023-02-15T00:55:05;2;;;0.8;;
40048;SDS011;54524;55.740;37.544;2023-02-15T00:56:06;2;;;0.6;;
40048;SDS011;54524;55.740;37.544;2023-02-15T00:57:07;2;;;0.6;;
40048;SDS011;54524;55.740;37.544;2023-02-15T00:58:08;2.2;;;0.6;;
40048;SDS011;54524;55.740;37.544;2023-02-15T00:59:09;3;;;0.7;;
40048;SDS011;54524;55.740;37.544;2023-02-15T01:01:04;3.2;;;0.7;;
40048;SDS011;54524;55.740;37.544;2023-02-15T01:02:05;3.2;;;0.7;;
40048;SDS011;54524;55.740;37.544;2023-02-15T01:03:06;3.2;;;0.7;;
40048;SDS011;54524;55.740;37.544;2023-02-15T01:04:06;3.1;;;0.8;;
40048;SDS011;54524;55.740;37.544;2023-02-15T01:05:07;2.5;;;0.7;;
40048;SDS011;54524;55.740;37.544;2023-02-15T01:06:08;2.5;;;0.7;;
40048;SDS011;54524;55.740;37.544;2023-02-15T01:07:09;2.5;;;0.7;;
40048;SDS011;54524;55.740;37.544;2023-02-15T01:08:10;1.9;;;0.6;;
40048;SDS011;54524;55.740;37.544;2023-02-15T01:09:10;2;;;0.6;;
40048;SDS011;54524;55.740;37.544;2023-02-15T01:11:03;2;;;0.7;;
40048;SDS011;54524;55.740;37.544;2023-02-15T01:12:04;2.2;;;0.7;;
40048;SDS011;54524;55.740;37.544;2023-02-15T01:13:05;2.3;;;0.8;;
40048;SDS011;54524;55.740;37.544;2023-02-15T01:14:05;2.4;;;0.8;;
40048;SDS011;54524;55.740;37.544;2023-02-15T01:15:06;2;;;0.7;;
40048;SDS011;54524;55.740;37.544;2023-02-15T01:16:07;2;;;0.7;;
40048;SDS011;54524;55.740;37.544;2023-02-15T01:17:08;2;;;0.7;;
40048;SDS011;54524;55.740;37.544;2023-02-15T01:18:09;2.8;;;0.7;;
40048;SDS011;54524;55.740;37.544;2023-02-15T01:19:09;2.9;;;0.8;;
40048;SDS011;54524;55.740;37.544;2023-02-15T01:21:08;3.4;;;0.8;;
40048;SDS011;54524;55.740;37.544;2023-02-15T01:22:09;3.6;;;0.7;;
40048;SDS011;54524;55.740;37.544;2023-02-15T01:23:09;3.7;;;0.7;;
40048;SDS011;54524;55.740;37.544;2023-02-15T01:24:11;2.9;;;0.7;;
40048;SDS011;54524;55.740;37.544;2023-02-15T01:25:11;3;;;0.7;;
40048;SDS011;54524;55.740;37.544;2023-02-15T01:26:12;2.9;;;0.6;;
40048;SDS011;54524;55.740;37.544;2023-02-15T01:27:14;3.4;;;0.9;;
40048;SDS011;54524;55.740;37.544;2023-02-15T01:28:14;3.3;;;0.8;;
40048;SDS011;54524;55.740;37.544;2023-02-15T01:29:15;3.1;;;0.8;;
40048;SDS011;54524;55.740;37.544;2023-02-15T01:31:05;2.4;;;0.7;;
40048;SDS011;54524;55.740;37.544;2023-02-15T01:32:05;2.4;;;0.7;;
40048;SDS011;54524;55.740;37.544;2023-02-15T01:33:06;2.8;;;0.8;;
40048;SDS011;54524;55.740;37.544;2023-02-15T01:34:06;2.8;;;0.8;;
40048;SDS011;54524;55.740;37.544;2023-02-15T01:35:07;2.8;;;0.8;;
40048;SDS011;54524;55.740;37.544;2023-02-15T01:36:08;2.5;;;0.7;;
40048;SDS011;54524;55.740;37.544;2023-02-15T01:37:09;2.6;;;0.7;;
40048;SDS011;54524;55.740;37.544;2023-02-15T01:38:09;2.5;;;0.7;;
40048;SDS011;54524;55.740;37.544;2023-02-15T01:39:10;2.7;;;0.7;;
40048;SDS011;54524;55.740;37.544;2023-02-15T01:41:02;2.7;;;0.7;;
40048;SDS011;54524;55.740;37.544;2023-02-15T01:42:34;2.7;;;0.7;;
40048;SDS011;54524;55.740;37.544;2023-02-15T01:43:39;2.7;;;0.7;;
40048;SDS011;54524;55.740;37.544;2023-02-15T01:44:48;2.8;;;0.7;;
40048;SDS011;54524;55.740;37.544;2023-02-15T01:45:49;2.4;;;0.7;;
40048;SDS011;54524;55.740;37.544;2023-02-15T01:46:51;2.4;;;0.7;;
40048;SDS011;54524;55.740;37.544;2023-02-15T01:47:54;2.4;;;0.7;;
40048;SDS011;54524;55.740;37.544;2023-02-15T01:48:57;2.8;;;0.7;;
40048;SDS011;54524;55.740;37.544;2023-02-15T01:50:02;2.8;;;0.7;;
40048;SDS011;54524;55.740;37.544;2023-02-15T01:51:03;2.7;;;0.7;;
40048;SDS011;54524;55.740;37.544;2023-02-15T01:52:03;2.3;;;0.8;;
40048;SDS011;54524;55.740;37.544;2023-02-15T01:53:06;2.3;;;0.8;;
40048;SDS011;54524;55.740;37.544;2023-02-15T01:54:09;2.3;;;0.8;;
40048;SDS011;54524;55.740;37.544;2023-02-15T01:55:11;2.7;;;0.7;;
40048;SDS011;54524;55.740;37.544;2023-02-15T01:56:13;3.3;;;0.7;;
40048;SDS011;54524;55.740;37.544;2023-02-15T01:57:16;3.5;;;0.8;;
40048;SDS011;54524;55.740;37.544;2023-02-15T01:58:18;2.5;;;0.7;;
40048;SDS011;54524;55.740;37.544;2023-02-15T01:59:20;2.6;;;0.7;;
40048;SDS011;54524;55.740;37.544;2023-02-15T02:01:03;3.3;;;0.9;;
40048;SDS011;54524;55.740;37.544;2023-02-15T02:02:05;3.1;;;0.9;;
40048;SDS011;54524;55.740;37.544;2023-02-15T02:03:07;2.7;;;0.8;;
40048;SDS011;54524;55.740;37.544;2023-02-15T02:04:09;3.3;;;0.7;;
40048;SDS011;54524;55.740;37.544;2023-02-15T02:05:12;3.3;;;0.7;;
40048;SDS011;54524;55.740;37.544;2023-02-15T02:06:12;3.3;;;0.7;;
40048;SDS011;54524;55.740;37.544;2023-02-15T02:07:13;1.5;;;0.6;;
40048;SDS011;54524;55.740;37.544;2023-02-15T02:08:15;1.4;;;0.5;;
40048;SDS011;54524;55.740;37.544;2023-02-15T02:09:15;1.3;;;0.6;;
40048;SDS011;54524;55.740;37.544;2023-02-15T02:11:08;2.6;;;0.8;;
40048;SDS011;54524;55.740;37.544;2023-02-15T02:12:09;2.6;;;0.8;;
40048;SDS011;54524;55.740;37.544;2023-02-15T02:13:10;4.4;;;1;;
40048;SDS011;54524;55.740;37.544;2023-02-15T02:14:10;4.4;;;1;;
40048;SDS011;54524;55.740;37.544;2023-02-15T02:15:11;4.5;;;1;;
40048;SDS011;54524;55.740;37.544;2023-02-15T02:16:13;2.6;;;0.8;;
40048;SDS011;54524;55.740;37.544;2023-02-15T02:17:16;2.6;;;0.8;;
40048;SDS011;54524;55.740;37.544;2023-02-15T02:18:21;2.6;;;0.8;;
40048;SDS011;54524;55.740;37.544;2023-02-15T02:19:32;1.9;;;0.8;;
40048;SDS011;54524;55.740;37.544;2023-02-15T02:21:08;2;;;0.8;;
40048;SDS011;54524;55.740;37.544;2023-02-15T02:22:22;4.3;;;0.9;;
40048;SDS011;54524;55.740;37.544;2023-02-15T02:23:30;4.3;;;0.9;;
40048;SDS011;54524;55.740;37.544;2023-02-15T02:24:38;4.1;;;0.9;;
40048;SDS011;54524;55.740;37.544;2023-02-15T02:25:47;1.9;;;0.6;;
40048;SDS011;54524;55.740;37.544;2023-02-15T02:26:58;1.9;;;0.6;;
40048;SDS011;54524;55.740;37.544;2023-02-15T02:28:06;3.4;;;1;;
40048;SDS011;54524;55.740;37.544;2023-02-15T02:29:19;3.4;;;1;;
40048;SDS011;54524;55.740;37.544;2023-02-15T02:31:16;6.30;;;1.20;;
40048;SDS011;54524;55.740;37.544;2023-02-15T02:32:29;3.2;;;0.9;;
40048;SDS011;54524;55.740;37.544;2023-02-15T02:33:38;3.4;;;0.9;;
40048;SDS011;54524;55.740;37.544;2023-02-15T02:34:42;3.3;;;0.7;;
40048;SDS011;54524;55.740;37.544;2023-02-15T02:35:48;3.2;;;0.7;;
40048;SDS011;54524;55.740;37.544;2023-02-15T02:36:50;3.2;;;0.7;;
40048;SDS011;54524;55.740;37.544;2023-02-15T02:37:55;2;;;0.7;;
40048;SDS011;54524;55.740;37.544;2023-02-15T02:39:05;1.9;;;0.7;;
40048;SDS011;54524;55.740;37.544;2023-02-15T02:41:05;2.8;;;0.7;;
40048;SDS011;54524;55.740;37.544;2023-02-15T02:42:10;2.8;;;0.7;;
40048;SDS011;54524;55.740;37.544;2023-02-15T02:43:15;2.8;;;0.7;;
40048;SDS011;54524;55.740;37.544;2023-02-15T02:44:18;3.3;;;0.7;;
40048;SDS011;54524;55.740;37.544;2023-02-15T02:45:21;3.3;;;0.6;;
40048;SDS011;54524;55.740;37.544;2023-02-15T02:46:26;3.5;;;0.7;;
40048;SDS011;54524;55.740;37.544;2023-02-15T02:47:29;3.1;;;0.9;;
40048;SDS011;54524;55.740;37.544;2023-02-15T02:48:32;3;;;0.9;;
40048;SDS011;54524;55.740;37.544;2023-02-15T02:49:33;3.1;;;0.9;;
40048;SDS011;54524;55.740;37.544;2023-02-15T02:51:03;3.2;;;0.9;;
40048;SDS011;54524;55.740;37.544;2023-02-15T02:52:04;3.2;;;0.9;;
40048;SDS011;54524;55.740;37.544;2023-02-15T02:53:05;2.6;;;0.7;;
40048;SDS011;54524;55.740;37.544;2023-02-15T02:54:06;2.6;;;0.7;;
40048;SDS011;54524;55.740;37.544;2023-02-15T02:55:08;2.5;;;0.7;;
40048;SDS011;54524;55.740;37.544;2023-02-15T02:56:11;4;;;0.9;;
40048;SDS011;54524;55.740;37.544;2023-02-15T02:57:17;4;;;0.9;;
40048;SDS011;54524;55.740;37.544;2023-02-15T02:58:19;3.6;;;0.9;;
40048;SDS011;54524;55.740;37.544;2023-02-15T02:59:23;3.2;;;0.8;;
40048;SDS011;54524;55.740;37.544;2023-02-15T03:01:05;2.8;;;0.8;;
40048;SDS011;54524;55.740;37.544;2023-02-15T03:02:08;3;;;0.9;;
40048;SDS011;54524;55.740;37.544;2023-02-15T03:03:13;3;;;0.9;;
40048;SDS011;54524;55.740;37.544;2023-02-15T03:04:16;3;;;0.9;;
40048;SDS011;54524;55.740;37.544;2023-02-15T03:05:19;2.7;;;0.8;;
40048;SDS011;54524;55.740;37.544;2023-02-15T03:06:22;2.7;;;0.8;;
40048;SDS011;54524;55.740;37.544;2023-02-15T03:07:25;3.3;;;0.8;;
40048;SDS011;54524;55.740;37.544;2023-02-15T03:08:29;3.2;;;1;;
40048;SDS011;54524;55.740;37.544;2023-02-15T03:09:33;3.3;;;1;;
40048;SDS011;54524;55.740;37.544;2023-02-15T03:11:02;3.1;;;1.1;;
40048;SDS011;54524;55.740;37.544;2023-02-15T03:12:03;3.1;;;1.1;;
40048;SDS011;54524;55.740;37.544;2023-02-15T03:13:04;3;;;1;;
40048;SDS011;54524;55.740;37.544;2023-02-15T03:14:05;3.5;;;0.9;;
40048;SDS011;54524;55.740;37.544;2023-02-15T03:15:06;3.7;;;0.9;;
40048;SDS011;54524;55.740;37.544;2023-02-15T03:16:08;3.7;;;0.9;;
40048;SDS011;54524;55.740;37.544;2023-02-15T03:17:42;4;;;0.7;;
40048;SDS011;54524;55.740;37.544;2023-02-15T03:18:44;4;;;0.8;;
40048;SDS011;54524;55.740;37.544;2023-02-15T03:19:53;4.1;;;0.8;;
40048;SDS011;54524;55.740;37.544;2023-02-15T03:21:03;2.6;;;0.8;;
40048;SDS011;54524;55.740;37.544;2023-02-15T03:22:06;2.5;;;0.9;;
40048;SDS011;54524;55.740;37.544;2023-02-15T03:23:11;2.5;;;0.9;;
40048;SDS011;54524;55.740;37.544;2023-02-15T03:24:13;2.4;;;0.9;;
40048;SDS011;54524;55.740;37.544;2023-02-15T03:25:15;2.3;;;0.9;;
40048;SDS011;54524;55.740;37.544;2023-02-15T03:26:17;3;;;0.9;;
40048;SDS011;54524;55.740;37.544;2023-02-15T03:27:19;3.6;;;0.9;;
40048;SDS011;54524;55.740;37.544;2023-02-15T03:28:22;3.5;;;0.9;;
40048;SDS011;54524;55.740;37.544;2023-02-15T03:29:24;3.9;;;0.8;;
40048;SDS011;54524;55.740;37.544;2023-02-15T03:31:04;4;;;0.8;;
40048;SDS011;54524;55.740;37.544;2023-02-15T03:32:07;4;;;0.9;;
40048;SDS011;54524;55.740;37.544;2023-02-15T03:33:08;3.3;;;0.9;;
40048;SDS011;54524;55.740;37.544;2023-02-15T03:34:10;3.3;;;0.9;;
40048;SDS011;54524;55.740;37.544;2023-02-15T03:35:11;3.4;;;0.9;;
40048;SDS011;54524;55.740;37.544;2023-02-15T03:36:14;4.3;;;1;;
40048;SDS011;54524;55.740;37.544;2023-02-15T03:37:21;4.5;;;1;;
40048;SDS011;54524;55.740;37.544;2023-02-15T03:38:25;4.5;;;1;;
40048;SDS011;54524;55.740;37.544;2023-02-15T03:39:28;3.7;;;0.9;;
40048;SDS011;54524;55.740;37.544;2023-02-15T03:41:02;3.5;;;1;;
40048;SDS011;54524;55.740;37.544;2023-02-15T03:42:12;3;;;0.8;;
40048;SDS011;54524;55.740;37.544;2023-02-15T03:43:14;2.7;;;0.8;;
40048;SDS011;54524;55.740;37.544;2023-02-15T03:44:19;2.7;;;0.8;;
40048;SDS011;54524;55.740;37.544;2023-02-15T03:45:22;3.1;;;0.9;;
40048;SDS011;54524;55.740;37.544;2023-02-15T03:46:25;3.1;;;0.9;;
40048;SDS011;54524;55.740;37.544;2023-02-15T03:47:29;3.1;;;0.9;;
40048;SDS011;54524;55.740;37.544;2023-02-15T03:48:32;4.1;;;0.9;;
40048;SDS011;54524;55.740;37.544;2023-02-15T03:49:39;4.2;;;0.9;;
40048;SDS011;54524;55.740;37.544;2023-02-15T03:51:04;3.5;;;1;;
40048;SDS011;54524;55.740;37.544;2023-02-15T03:52:38;3.3;;;1;;
40048;SDS011;54524;55.740;37.544;2023-02-15T03:53:38;3.3;;;1;;
40048;SDS011;54524;55.740;37.544;2023-02-15T03:54:39;3.7;;;0.8;;
40048;SDS011;54524;55.740;37.544;2023-02-15T03:55:45;3.6;;;0.8;;
40048;SDS011;54524;55.740;37.544;2023-02-15T03:56:46;3.1;;;0.8;;
40048;SDS011;54524;55.740;37.544;2023-02-15T04:01:03;2.9;;;0.9;;
40048;SDS011;54524;55.740;37.544;2023-02-15T04:03:11;4;;;0.9;;
40048;SDS011;54524;55.740;37.544;2023-02-15T04:04:14;4.9;;;0.8;;
40048;SDS011;54524;55.740;37.544;2023-02-15T04:05:16;4.8;;;0.8;;
40048;SDS011;54524;55.740;37.544;2023-02-15T04:06:17;2.5;;;0.9;;
40048;SDS011;54524;55.740;37.544;2023-02-15T04:07:17;2.4;;;0.9;;
40048;SDS011;54524;55.740;37.544;2023-02-15T04:08:18;2.3;;;0.9;;
40048;SDS011;54524;55.740;37.544;2023-02-15T04:09:19;3.9;;;0.8;;
40048;SDS011;54524;55.740;37.544;2023-02-15T04:11:02;3.5;;;0.8;;
40048;SDS011;54524;55.740;37.544;2023-02-15T04:12:03;3.8;;;0.8;;
40048;SDS011;54524;55.740;37.544;2023-02-15T04:13:04;5;;;0.7;;
40048;SDS011;54524;55.740;37.544;2023-02-15T04:14:05;5;;;0.7;;
40048;SDS011;54524;55.740;37.544;2023-02-15T04:17:12;5.8;;;1;;
40048;SDS011;54524;55.740;37.544;2023-02-15T04:18:13;5.4;;;0.9;;
40048;SDS011;54524;55.740;37.544;2023-02-15T04:19:19;3.4;;;1;;
40048;SDS011;54524;55.740;37.544;2023-02-15T04:21:02;3;;;0.9;;
40048;SDS011;54524;55.740;37.544;2023-02-15T04:24:10;4.2;;;0.8;;
40048;SDS011;54524;55.740;37.544;2023-02-15T04:26:14;3.5;;;1.1;;
40048;SDS011;54524;55.740;37.544;2023-02-15T04:27:15;3.5;;;1.1;;
40048;SDS011;54524;55.740;37.544;2023-02-15T04:28:15;4.3;;;1;;
40048;SDS011;54524;55.740;37.544;2023-02-15T04:29:16;4.3;;;1;;
40048;SDS011;54524;55.740;37.544;2023-02-15T04:31:02;4.4;;;0.9;;
40048;SDS011;54524;55.740;37.544;2023-02-15T04:32:03;4.6;;;0.9;;
40048;SDS011;54524;55.740;37.544;2023-02-15T04:33:04;4.5;;;0.9;;
40048;SDS011;54524;55.740;37.544;2023-02-15T04:34:04;4.6;;;0.9;;
40048;SDS011;54524;55.740;37.544;2023-02-15T04:35:05;4.8;;;0.9;;
40048;SDS011;54524;55.740;37.544;2023-02-15T04:36:11;5.4;;;1;;
40048;SDS011;54524;55.740;37.544;2023-02-15T04:37:12;3;;;1;;
40048;SDS011;54524;55.740;37.544;2023-02-15T04:38:13;2.9;;;1;;
40048;SDS011;54524;55.740;37.544;2023-02-15T04:39:14;3;;;1.1;;
40048;SDS011;54524;55.740;37.544;2023-02-15T04:41:02;2.6;;;0.9;;
40048;SDS011;54524;55.740;37.544;2023-02-15T04:42:03;2.7;;;1;;
40048;SDS011;54524;55.740;37.544;2023-02-15T04:43:03;2.4;;;0.9;;
40048;SDS011;54524;55.740;37.544;2023-02-15T04:44:04;3.5;;;1.3;;
40048;SDS011;54524;55.740;37.544;2023-02-15T04:45:05;3.6;;;1.3;;
40048;SDS011;54524;55.740;37.544;2023-02-15T04:46:05;3.7;;;1.4;;
40048;SDS011;54524;55.740;37.544;2023-02-15T04:47:06;3.4;;;1.1;;
40048;SDS011;54524;55.740;37.544;2023-02-15T04:48:07;3.3;;;1.1;;
40048;SDS011;54524;55.740;37.544;2023-02-15T04:49:08;3.4;;;1.1;;
40048;SDS011;54524;55.740;37.544;2023-02-15T04:51:05;3.7;;;1.1;;
40048;SDS011;54524;55.740;37.544;2023-02-15T04:52:05;3.7;;;1.1;;
40048;SDS011;54524;55.740;37.544;2023-02-15T04:53:06;5;;;1.3;;
40048;SDS011;54524;55.740;37.544;2023-02-15T04:54:06;3.7;;;1.2;;
40048;SDS011;54524;55.740;37.544;2023-02-15T04:55:07;3.7;;;1.2;;
40048;SDS011;54524;55.740;37.544;2023-02-15T04:56:07;4.8;;;1.3;;
40048;SDS011;54524;55.740;37.544;2023-02-15T04:57:08;4.8;;;1.3;;
40048;SDS011;54524;55.740;37.544;2023-02-15T04:58:09;4.8;;;1.3;;
40048;SDS011;54524;55.740;37.544;2023-02-15T04:59:09;3.7;;;1.2;;
40048;SDS011;54524;55.740;37.544;2023-02-15T05:01:03;3.7;;;1.2;;
40048;SDS011;54524;55.740;37.544;2023-02-15T05:02:04;4;;;1.4;;
40048;SDS011;54524;55.740;37.544;2023-02-15T05:03:09;3.9;;;1.4;;
40048;SDS011;54524;55.740;37.544;2023-02-15T05:04:10;3.9;;;1.4;;
40048;SDS011;54524;55.740;37.544;2023-02-15T05:05:10;4.8;;;1.3;;
40048;SDS011;54524;55.740;37.544;2023-02-15T05:06:16;4.8;;;1.3;;
40048;SDS011;54524;55.740;37.544;2023-02-15T05:07:17;4.8;;;1.2;;
40048;SDS011;54524;55.740;37.544;2023-02-15T05:08:20;0;;;0;;
40048;SDS011;54524;55.740;37.544;2023-02-15T05:09:21;3.8;;;1.2;;
40048;SDS011;54524;55.740;37.544;2023-02-15T05:11:02;4.6;;;1.2;;
40048;SDS011;54524;55.740;37.544;2023-02-15T05:12:03;4.8;;;1.3;;
40048;SDS011;54524;55.740;37.544;2023-02-15T05:13:03;4.9;;;1.3;;
40048;SDS011;54524;55.740;37.544;2023-02-15T05:14:04;3.1;;;1;;
40048;SDS011;54524;55.740;37.544;2023-02-15T05:15:04;3.1;;;1;;
40048;SDS011;54524;55.740;37.544;2023-02-15T05:16:05;3.1;;;1;;
40048;SDS011;54524;55.740;37.544;2023-02-15T05:17:06;3.9;;;1.3;;
40048;SDS011;54524;55.740;37.544;2023-02-15T05:18:07;3.8;;;1.3;;
40048;SDS011;54524;55.740;37.544;2023-02-15T05:19:07;3.9;;;1.3;;
40048;SDS011;54524;55.740;37.544;2023-02-15T05:21:02;4.2;;;1.2;;
40048;SDS011;54524;55.740;37.544;2023-02-15T05:22:03;4.2;;;1.2;;
40048;SDS011;54524;55.740;37.544;2023-02-15T05:23:03;8.2;;;1.4;;
40048;SDS011;54524;55.740;37.544;2023-02-15T05:24:04;7.7;;;1.2;;
40048;SDS011;54524;55.740;37.544;2023-02-15T05:29:19;4;;;1;;
40048;SDS011;54524;55.740;37.544;2023-02-15T05:31:04;4.1;;;1.2;;
40048;SDS011;54524;55.740;37.544;2023-02-15T05:32:04;4.1;;;1.2;;
40048;SDS011;54524;55.740;37.544;2023-02-15T05:33:05;3.8;;;1.2;;
40048;SDS011;54524;55.740;37.544;2023-02-15T05:34:06;3.7;;;1.2;;
40048;SDS011;54524;55.740;37.544;2023-02-15T05:35:07;3.3;;;1.2;;
40048;SDS011;54524;55.740;37.544;2023-02-15T05:36:08;3;;;1.1;;
40048;SDS011;54524;55.740;37.544;2023-02-15T05:37:09;3.5;;;1.1;;
40048;SDS011;54524;55.740;37.544;2023-02-15T05:38:09;3.6;;;1.1;;
40048;SDS011;54524;55.740;37.544;2023-02-15T05:39:10;2.9;;;1;;
40048;SDS011;54524;55.740;37.544;2023-02-15T05:41:04;2.9;;;1;;
40048;SDS011;54524;55.740;37.544;2023-02-15T05:42:05;7.2;;;1.3;;
40048;SDS011;54524;55.740;37.544;2023-02-15T05:43:06;7;;;1.2;;
40048;SDS011;54524;55.740;37.544;2023-02-15T05:44:06;6.7;;;1.2;;
40048;SDS011;54524;55.740;37.544;2023-02-15T05:45:07;4.6;;;1.3;;
40048;SDS011;54524;55.740;37.544;2023-02-15T05:46:08;4.6;;;1.4;;
40048;SDS011;54524;55.740;37.544;2023-02-15T05:47:09;4.5;;;1.3;;
40048;SDS011;54524;55.740;37.544;2023-02-15T05:48:10;5.5;;;1.3;;
40048;SDS011;54524;55.740;37.544;2023-02-15T05:49:10;5.1;;;1.3;;
40048;SDS011;54524;55.740;37.544;2023-02-15T05:51:04;4.9;;;1.2;;
40048;SDS011;54524;55.740;37.544;2023-02-15T05:52:04;5.4;;;1.4;;
40048;SDS011;54524;55.740;37.544;2023-02-15T05:53:05;5.5;;;1.4;;
40048;SDS011;54524;55.740;37.544;2023-02-15T05:54:06;5.5;;;1.4;;
40048;SDS011;54524;55.740;37.544;2023-02-15T05:55:06;5.5;;;1.4;;
40048;SDS011;54524;55.740;37.544;2023-02-15T05:56:09;6;;;1.4;;
40048;SDS011;54524;55.740;37.544;2023-02-15T05:57:10;5.9;;;1.4;;
40048;SDS011;54524;55.740;37.544;2023-02-15T05:58:11;6.7;;;1.6;;
40048;SDS011;54524;55.740;37.544;2023-02-15T05:59:11;6.7;;;1.6;;
40048;SDS011;54524;55.740;37.544;2023-02-15T06:01:07;6.5;;;1.6;;
40048;SDS011;54524;55.740;37.544;2023-02-15T06:02:08;5.9;;;1.6;;
40048;SDS011;54524;55.740;37.544;2023-02-15T06:03:09;5.7;;;1.6;;
40048;SDS011;54524;55.740;37.544;2023-02-15T06:04:09;5.8;;;1.6;;
40048;SDS011;54524;55.740;37.544;2023-02-15T06:05:10;5.1;;;1.5;;
40048;SDS011;54524;55.740;37.544;2023-02-15T06:06:16;5.4;;;1.5;;
40048;SDS011;54524;55.740;37.544;2023-02-15T06:07:17;5.4;;;1.5;;
40048;SDS011;54524;55.740;37.544;2023-02-15T06:08:18;6.7;;;1.8;;
40048;SDS011;54524;55.740;37.544;2023-02-15T06:09:18;6.7;;;1.8;;
40048;SDS011;54524;55.740;37.544;2023-02-15T06:11:02;5.2;;;1.7;;
40048;SDS011;54524;55.740;37.544;2023-02-15T06:12:03;5.2;;;1.7;;
40048;SDS011;54524;55.740;37.544;2023-02-15T06:13:04;5.2;;;1.7;;
40048;SDS011;54524;55.740;37.544;2023-02-15T06:14:04;5;;;1.6;;
40048;SDS011;54524;55.740;37.544;2023-02-15T06:15:05;5.1;;;1.6;;
40048;SDS011;54524;55.740;37.544;2023-02-15T06:16:06;5;;;1.6;;
40048;SDS011;54524;55.740;37.544;2023-02-15T06:17:07;5.2;;;1.8;;
40048;SDS011;54524;55.740;37.544;2023-02-15T06:18:07;5.3;;;1.8;;
40048;SDS011;54524;55.740;37.544;2023-02-15T06:19:08;5.3;;;1.8;;
40048;SDS011;54524;55.740;37.544;2023-02-15T06:21:02;5;;;1.9;;
40048;SDS011;54524;55.740;37.544;2023-02-15T06:22:03;4.6;;;1.8;;
40048;SDS011;54524;55.740;37.544;2023-02-15T06:23:04;4.7;;;2.1;;
40048;SDS011;54524;55.740;37.544;2023-02-15T06:24:04;4.7;;;2.1;;
40048;SDS011;54524;55.740;37.544;2023-02-15T06:25:05;4.5;;;2.1;;
40048;SDS011;54524;55.740;37.544;2023-02-15T06:26:06;5.7;;;1.8;;
40048;SDS011;54524;55.740;37.544;2023-02-15T06:27:07;5.8;;;1.8;;
40048;SDS011;54524;55.740;37.544;2023-02-15T06:28:07;5.7;;;1.7;;
40048;SDS011;54524;55.740;37.544;2023-02-15T06:29:08;4.3;;;1.8;;
40048;SDS011;54524;55.740;37.544;2023-02-15T06:31:03;4.6;;;1.9;;
40048;SDS011;54524;55.740;37.544;2023-02-15T06:32:04;5.5;;;1.8;;
40048;SDS011;54524;55.740;37.544;2023-02-15T06:33:05;5.6;;;1.8;;
40048;SDS011;54524;55.740;37.544;2023-02-15T06:34:05;5.5;;;1.8;;
40048;SDS011;54524;55.740;37.544;2023-02-15T06:35:06;6.8;;;2;;
40048;SDS011;54524;55.740;37.544;2023-02-15T06:36:06;6.7;;;2;;
40048;SDS011;54524;55.740;37.544;2023-02-15T06:37:08;6.3;;;2;;
40048;SDS011;54524;55.740;37.544;2023-02-15T06:38:08;6.5;;;1.8;;
40048;SDS011;54524;55.740;37.544;2023-02-15T06:39:09;6.3;;;1.8;;
40048;SDS011;54524;55.740;37.544;2023-02-15T06:41:02;4.9;;;1.7;;
40048;SDS011;54524;55.740;37.544;2023-02-15T06:42:03;4.9;;;1.7;;
40048;SDS011;54524;55.740;37.544;2023-02-15T06:43:03;5;;;1.6;;
40048;SDS011;54524;55.740;37.544;2023-02-15T06:44:04;8.8;;;1.8;;
40048;SDS011;54524;55.740;37.544;2023-02-15T06:45:05;8.8;;;1.8;;
40048;SDS011;54524;55.740;37.544;2023-02-15T06:46:05;8.9;;;1.8;;
40048;SDS011;54524;55.740;37.544;2023-02-15T06:47:06;8.4;;;1.7;;
40048;SDS011;54524;55.740;37.544;2023-02-15T06:48:07;5.5;;;2;;
40048;SDS011;54524;55.740;37.544;2023-02-15T06:49:08;5.5;;;2;;
40048;SDS011;54524;55.740;37.544;2023-02-15T06:51:02;4.3;;;1.5;;
40048;SDS011;54524;55.740;37.544;2023-02-15T06:52:03;4.2;;;1.4;;
40048;SDS011;54524;55.740;37.544;2023-02-15T06:53:04;4;;;1.5;;
40048;SDS011;54524;55.740;37.544;2023-02-15T06:54:05;6.6;;;1.8;;
40048;SDS011;54524;55.740;37.544;2023-02-15T06:55:05;6.6;;;1.8;;
40048;SDS011;54524;55.740;37.544;2023-02-15T06:56:06;6.5;;;1.8;;
40048;SDS011;54524;55.740;37.544;2023-02-15T06:57:09;5.6;;;1.8;;
40048;SDS011;54524;55.740;37.544;2023-02-15T06:58:10;5.7;;;1.8;;
40048;SDS011;54524;55.740;37.544;2023-02-15T06:59:10;5.5;;;1.8;;
40048;SDS011;54524;55.740;37.544;2023-02-15T07:01:04;5.4;;;1.6;;
40048;SDS011;54524;55.740;37.544;2023-02-15T07:02:05;5.3;;;1.6;;
40048;SDS011;54524;55.740;37.544;2023-02-15T07:03:05;5.4;;;1.6;;
40048;SDS011;54524;55.740;37.544;2023-02-15T07:04:06;5.9;;;1.7;;
40048;SDS011;54524;55.740;37.544;2023-02-15T07:05:07;5.9;;;1.7;;
40048;SDS011;54524;55.740;37.544;2023-02-15T07:06:07;5.8;;;1.7;;
40048;SDS011;54524;55.740;37.544;2023-02-15T07:07:09;4.2;;;1.4;;